LiveATC.Net - Listen to live air traffic control over the Internet!


ICAO: KSTP  IATA: STP   Airport: St. Paul Downtown Airport / Holman Field
City: Saint Paul   State/Province: Minnesota
Country: United States   Continent: North America
KSTP METAR Weather: KSTP 170053Z 32016G25KT 10SM BKN060 07/M02 A3010 RMK AO2 PK WND 32033/0025 SLP196 T00721022
KSTP Flight Activity (FlightAware)
KSTP Airport Info   (AirNav) (iFlightPlanner)
KSTP VFR Sectional Chart   (iFlightPlanner) 
KSTP IFR Low Chart   (iFlightPlanner) 

KSTP Tower
Feed Status: UP   Listeners: 0
Listen right in your browser - requires Flash (in browser, requires Flash)
Click here to listen with your own player (launches your MP3 player)
KSTP Tower Audio Archives
FacilityFrequency
Saint Paul Tower119.100

NOTICE

Unauthorized use prohibited. See LiveATC.net Terms of Service


Find LiveATC Audio Streams


Airport/ARTCC Code

Frequency Search
(e.g., 124.400, 128.75)
Site-wide search
 


Browse LiveATC Feeds
Top 50 LiveATC Feeds
Bad Weather Areas

LiveATC FAQ
Offer a LiveATC Feed
Contact LiveATC.net
Press Inquiries

LiveATC on iPhone
LiveATC on Android

Windows Phone
Windows 8/10

LiveATC Mobile
(Mobile browser)

ATC Audio Archives
Interesting Recordings

LiveATC Forums


Home Page
About LiveATC.net
Make a Donation
Terms of Use
Privacy Policy

Canadian Air Freqs

AIRMETs/SIGMETs

FAA Airport Status
Nat'l Airspace Status
Arrival Demand Charts


Server Software By:
Icecast.org
Liquidsoap